Estación Meteorológica Peña el Pijo (Robertgarden) [ 10/21/17 19:45:57 CEST ]

Fecha Hora Presion(HPa) Temp (°C) Humedad % Rocio (°C) Viento ( m/s) Direccion Lluvia 1Hora(mm) Lluvia 24H(mm) LLuvia Total(mm)
2017-Jun-07 01:01:40 1011.200 13.4 61 6.0         1427.09
2017-Jun-07 02:01:39 1011.400 12.1 65 5.7         1427.09
2017-Jun-07 03:01:36 1011.100 11.8 67 5.8         1427.09
2017-Jun-07 04:01:32 1011.300 10.8 69 5.4         1427.09
2017-Jun-07 05:01:32 1011.500 10.1 73 5.5         1427.09
2017-Jun-07 06:01:32 1011.500 9.3 77 5.4         1427.09
2017-Jun-07 07:01:41 1012.200 8.5 80 5.2         1427.09
2017-Jun-07 08:01:29 1012.400 11.7 83 8.9         1427.09
2017-Jun-07 09:01:56 1012.800 18.3 63 11.1         1427.09
2017-Jun-07 10:01:38 1012.900 21.8 52 11.5         1427.09
2017-Jun-07 11:01:47 1013.100 25.9 42 12.0         1427.09
2017-Jun-07 12:01:44 1013.000 28.5 35 11.4         1427.09
2017-Jun-07 13:01:35 1012.900 29.3 33 11.3         1427.09
2017-Jun-07 14:02:03 1012.600 27.4 36 10.9         1427.09
2017-Jun-07 15:01:47 1012.300 28.8 31 10.0 2.7 SSW     1427.09
2017-Jun-07 16:01:46 1012.000 28.5 34 11.0         1427.09
2017-Jun-07 17:01:50 1011.700 29.3 35 12.2         1427.09
2017-Jun-07 18:01:47 1011.300 28.1 36 11.5 0.7 SSW     1427.09
2017-Jun-07 19:02:02 1011.100 26.8 40 12.1         1427.09
2017-Jun-07 20:01:50 1011.300 25.1 42 11.3         1427.09
2017-Jun-07 21:01:47 1011.300 22.1 48 10.5         1427.09
2017-Jun-07 22:01:43 1011.800 19.4 55 10.1         1427.09
2017-Jun-07 23:01:45 1012.100 18.1 61 10.4 1.3 S     1427.09

Temperatura Máxima:29°    Temperatura Mínima:
Presión Máxima:1013.100 Hpa    Presión Mínima:1011.100 Hpa


Volver